Time;durP1;ratioP1;P1;durP2;ratioP2;P2;SDS_P1;SDS_P2;PMS_P1;PMS_P2;Temp;Humidity;BMP_temperature;BMP_pressure;BME280_temperature;BME280_humidity;BME280_pressure;Samples;Min_cycle;Max_cycle;Signal;HPM_P1;HPM_P2
2022/10/23 00:00:38;;;;;;;3.88;1.13;;;13.80;81.30;;;;;;5092201;28;20384;-76
2022/10/23 00:03:04;;;;;;;5.05;1.20;;;13.90;81.40;;;;;;5092327;28;20517;-76
2022/10/23 00:05:30;;;;;;;4.00;1.17;;;13.80;81.40;;;;;;5092362;28;20020;-76
2022/10/23 00:07:58;;;;;;;5.80;1.08;;;13.80;81.20;;;;;;5092183;28;20488;-76
2022/10/23 00:10:25;;;;;;;3.00;1.15;;;13.80;81.20;;;;;;5092180;28;20029;-76
2022/10/23 00:12:51;;;;;;;2.08;1.15;;;13.80;81.10;;;;;;5091975;28;20080;-76
2022/10/23 00:15:20;;;;;;;1.40;0.93;;;13.80;81.00;;;;;;5092007;28;20032;-77
2022/10/23 00:17:46;;;;;;;2.78;1.42;;;13.70;81.10;;;;;;5091813;28;20025;-76
2022/10/23 00:20:13;;;;;;;2.08;1.00;;;13.70;80.90;;;;;;5091784;28;20111;-76
2022/10/23 00:22:39;;;;;;;2.85;0.80;;;13.60;81.00;;;;;;5092092;28;20025;-76
2022/10/23 00:25:06;;;;;;;2.05;0.80;;;13.60;81.20;;;;;;5091868;28;20445;-77
2022/10/23 00:27:32;;;;;;;1.38;0.82;;;13.60;81.10;;;;;;5091713;28;20025;-76
2022/10/23 00:29:57;;;;;;;3.60;0.82;;;13.60;81.10;;;;;;5091722;28;20036;-77
2022/10/23 00:32:23;;;;;;;1.25;0.60;;;13.60;81.00;;;;;;5091674;28;20421;-77
2022/10/23 00:34:49;;;;;;;4.75;0.95;;;13.60;81.10;;;;;;5091435;28;20369;-77
2022/10/23 00:37:14;;;;;;;3.33;1.10;;;13.60;81.10;;;;;;5091753;28;20141;-77
2022/10/23 00:39:40;;;;;;;1.63;0.88;;;13.60;81.00;;;;;;5091710;28;20107;-77
2022/10/23 00:42:06;;;;;;;2.30;1.15;;;13.60;80.90;;;;;;5091566;28;20029;-76
2022/10/23 00:44:31;;;;;;;3.20;1.30;;;13.60;80.70;;;;;;5091396;28;20495;-77
2022/10/23 00:46:58;;;;;;;1.77;0.60;;;13.60;80.90;;;;;;5074341;28;20032;-77
2022/10/23 00:49:27;;;;;;;2.50;0.65;;;13.60;80.80;;;;;;5091077;28;20056;-77
2022/10/23 00:51:55;;;;;;;1.80;1.00;;;13.60;80.70;;;;;;5091441;28;20032;-77
2022/10/23 00:54:25;;;;;;;4.22;0.90;;;13.60;80.80;;;;;;5091294;28;20070;-76
2022/10/23 00:56:54;;;;;;;1.38;0.73;;;13.60;80.80;;;;;;5090954;28;20396;-77
2022/10/23 00:59:20;;;;;;;3.92;1.02;;;13.60;80.40;;;;;;5091189;28;20032;-77
2022/10/23 01:01:47;;;;;;;3.83;0.90;;;13.60;80.30;;;;;;5091240;28;20024;-75
2022/10/23 01:04:12;;;;;;;4.80;0.82;;;13.60;80.10;;;;;;5090994;28;20112;-75
2022/10/23 01:07:00;;;;;;;5.43;0.90;;;13.60;80.10;;;;;;5091086;28;20120;-76
2022/10/23 01:09:35;;;;;;;3.03;1.00;;;13.60;80.10;;;;;;5075152;28;20032;-75
2022/10/23 01:12:22;;;;;;;1.60;0.85;;;13.50;81.10;;;;;;5073940;28;20049;-75
2022/10/23 01:15:29;;;;;;;1.42;0.90;;;13.60;80.50;;;;;;5074099;28;20028;-75
2022/10/23 01:17:58;;;;;;;1.13;0.70;;;13.50;80.40;;;;;;5090857;28;20473;-75
2022/10/23 01:20:44;;;;;;;0.65;0.65;;;13.50;80.50;;;;;;5090628;28;20025;-75
2022/10/23 01:23:40;;;;;;;3.88;1.15;;;13.60;80.30;;;;;;5090896;28;20025;-76
2022/10/23 01:26:44;;;;;;;2.17;0.60;;;13.60;80.20;;;;;;5073919;28;20051;-76
2022/10/23 01:29:58;;;;;;;4.32;0.73;;;13.50;80.50;;;;;;5073979;28;20137;-76
2022/10/23 01:32:47;;;;;;;1.48;0.93;;;13.60;80.40;;;;;;5070927;28;20039;-76
2022/10/23 01:35:26;;;;;;;3.55;0.77;;;13.50;80.30;;;;;;5090744;28;20121;-76
2022/10/23 01:38:04;;;;;;;2.22;0.50;;;13.50;80.40;;;;;;5090542;28;20031;-76
2022/10/23 01:40:41;;;;;;;3.13;0.70;;;13.50;80.50;;;;;;5090476;28;20020;-75
2022/10/23 01:43:16;;;;;;;4.18;1.02;;;13.60;80.20;;;;;;5090533;28;20039;-76
2022/10/23 01:45:47;;;;;;;1.13;0.75;;;13.60;80.20;;;;;;5090471;28;20027;-76
2022/10/23 01:48:20;;;;;;;1.30;0.60;;;13.60;80.10;;;;;;5090339;28;20025;-75
2022/10/23 01:50:47;;;;;;;2.80;0.77;;;13.60;80.10;;;;;;5090244;28;20025;-76
2022/10/23 01:53:13;;;;;;;1.42;0.70;;;13.60;80.00;;;;;;5090123;28;20480;-75
2022/10/23 01:55:40;;;;;;;4.10;0.75;;;13.60;80.00;;;;;;5089805;28;20033;-76
2022/10/23 01:58:07;;;;;;;3.13;0.77;;;13.60;80.00;;;;;;5090287;28;20060;-75
2022/10/23 02:00:35;;;;;;;2.85;0.70;;;13.60;79.80;;;;;;5090059;28;20020;-76
2022/10/23 02:03:03;;;;;;;3.30;0.70;;;13.60;79.80;;;;;;5090127;28;20024;-77
2022/10/23 02:05:30;;;;;;;2.42;0.63;;;13.50;79.80;;;;;;5090114;28;20032;-77
2022/10/23 02:07:57;;;;;;;2.65;0.75;;;13.50;79.90;;;;;;5089834;28;20056;-77
2022/10/23 02:10:39;;;;;;;0.60;0.60;;;13.60;79.80;;;;;;5089739;28;20025;-76
2022/10/23 02:13:24;;;;;;;2.08;0.65;;;13.60;79.80;;;;;;5089534;28;20048;-77
2022/10/23 02:15:57;;;;;;;4.97;0.98;;;13.60;79.80;;;;;;5089817;28;20041;-76
2022/10/23 02:18:50;;;;;;;1.55;0.82;;;13.60;79.70;;;;;;5089690;28;20469;-77
2022/10/23 02:21:20;;;;;;;2.35;0.55;;;13.60;79.60;;;;;;5089073;28;20029;-77
2022/10/23 02:23:52;;;;;;;1.88;0.70;;;13.60;79.50;;;;;;5089649;28;20477;-76
2022/10/23 02:26:25;;;;;;;2.97;0.73;;;13.60;79.40;;;;;;5089481;28;20029;-75
2022/10/23 02:29:06;;;;;;;1.38;0.50;;;13.60;79.40;;;;;;5089575;28;20025;-75
2022/10/23 02:31:32;;;;;;;1.45;0.68;;;13.60;79.40;;;;;;5089653;28;20085;-75
2022/10/23 02:33:57;;;;;;;1.65;0.80;;;13.60;79.30;;;;;;5089524;28;20028;-75
2022/10/23 02:36:23;;;;;;;2.30;0.77;;;13.60;79.20;;;;;;5089251;28;20435;-76
2022/10/23 02:38:48;;;;;;;1.50;0.90;;;13.60;79.20;;;;;;5089375;28;20029;-76
2022/10/23 02:41:35;;;;;;;0.82;0.47;;;13.70;79.10;;;;;;5089229;28;20025;-76
2022/10/23 02:44:07;;;;;;;1.58;0.82;;;13.60;79.00;;;;;;5072455;28;20024;-76
2022/10/23 02:46:55;;;;;;;3.97;0.70;;;13.60;78.80;;;;;;5072246;28;20024;-76
2022/10/23 02:49:52;;;;;;;3.88;0.70;;;13.60;78.70;;;;;;5072206;28;20473;-76
2022/10/23 02:52:31;;;;;;;5.03;0.65;;;13.60;79.00;;;;;;5089296;28;20499;-76
2022/10/23 02:55:24;;;;;;;2.15;0.60;;;13.60;79.10;;;;;;5072253;28;20032;-76
2022/10/23 02:58:25;;;;;;;3.83;0.70;;;13.60;79.10;;;;;;5072200;28;20016;-76
2022/10/23 03:00:58;;;;;;;2.13;0.57;;;13.60;79.90;;;;;;5072105;28;20031;-75
2022/10/23 03:03:32;;;;;;;1.13;0.68;;;13.50;79.00;;;;;;5089032;28;20032;-76
2022/10/23 03:05:58;;;;;;;0.95;0.68;;;13.60;78.90;;;;;;5088899;28;20020;-76
2022/10/23 03:08:24;;;;;;;4.90;0.63;;;13.60;78.70;;;;;;5088805;28;20488;-76
2022/10/23 03:10:50;;;;;;;1.90;0.45;;;13.60;78.50;;;;;;5088626;28;20075;-76
2022/10/23 03:13:16;;;;;;;1.23;0.63;;;13.60;78.30;;;;;;5088655;28;20405;-76
2022/10/23 03:15:42;;;;;;;1.52;0.77;;;13.60;78.40;;;;;;5088767;28;20036;-75
2022/10/23 03:18:08;;;;;;;1.08;0.50;;;13.60;78.20;;;;;;5088840;28;20027;-77
2022/10/23 03:20:33;;;;;;;1.52;0.47;;;13.60;77.90;;;;;;5088700;28;20029;-76
2022/10/23 03:22:59;;;;;;;0.77;0.60;;;13.60;78.40;;;;;;5088580;28;20029;-77
2022/10/23 03:25:24;;;;;;;0.65;0.40;;;13.60;77.60;;;;;;5088481;28;20476;-76
2022/10/23 03:27:50;;;;;;;3.70;0.90;;;13.60;77.60;;;;;;5088773;28;20024;-77
2022/10/23 03:30:16;;;;;;;2.90;0.43;;;13.60;77.20;;;;;;5088649;28;20056;-77
2022/10/23 03:32:42;;;;;;;7.47;0.70;;;13.60;77.10;;;;;;5088471;28;20389;-77
2022/10/23 03:35:07;;;;;;;2.78;0.60;;;13.60;76.80;;;;;;5088382;28;20028;-77
2022/10/23 03:37:33;;;;;;;2.75;0.52;;;13.50;77.10;;;;;;5088517;28;20032;-77
2022/10/23 03:39:59;;;;;;;1.08;0.45;;;13.50;77.10;;;;;;5088401;28;20448;-77
2022/10/23 03:42:24;;;;;;;2.53;0.55;;;13.50;77.10;;;;;;5088391;28;20024;-77
2022/10/23 03:44:50;;;;;;;1.48;0.52;;;13.50;77.00;;;;;;5088384;28;20115;-77
2022/10/23 03:47:15;;;;;;;1.33;0.40;;;13.50;77.10;;;;;;5088467;28;20207;-76
2022/10/23 03:49:41;;;;;;;3.63;0.47;;;13.40;76.90;;;;;;5088021;28;20029;-77
2022/10/23 03:52:07;;;;;;;1.77;0.20;;;13.40;76.80;;;;;;5088490;28;20033;-77
2022/10/23 03:54:33;;;;;;;0.30;0.30;;;13.50;76.70;;;;;;5088141;28;20032;-77
2022/10/23 03:56:59;;;;;;;1.48;0.40;;;13.50;76.50;;;;;;5088453;28;20043;-77
2022/10/23 03:59:25;;;;;;;1.05;0.40;;;13.50;76.30;;;;;;5071498;28;20376;-77
2022/10/23 04:01:51;;;;;;;0.82;0.45;;;13.50;76.00;;;;;;5088253;28;20513;-77
2022/10/23 04:04:17;;;;;;;1.13;0.52;;;13.50;75.80;;;;;;5088367;28;20063;-77
2022/10/23 04:06:43;;;;;;;2.40;0.40;;;13.60;75.60;;;;;;5071183;28;20029;-76
2022/10/23 04:09:09;;;;;;;6.65;0.47;;;13.60;75.40;;;;;;5088080;28;20465;-77
2022/10/23 04:11:34;;;;;;;3.33;0.45;;;13.60;75.30;;;;;;5088181;28;20047;-77
2022/10/23 04:14:00;;;;;;;1.90;0.80;;;13.60;75.00;;;;;;5054774;28;20480;-76
2022/10/23 04:16:26;;;;;;;5.10;0.82;;;13.60;74.80;;;;;;5054600;28;20412;-76
2022/10/23 04:18:52;;;;;;;1.42;0.60;;;13.70;74.70;;;;;;5054718;28;20056;-76
2022/10/23 04:21:18;;;;;;;1.48;0.80;;;13.70;74.50;;;;;;5054604;28;20020;-77
2022/10/23 04:23:43;;;;;;;1.75;0.70;;;13.80;74.10;;;;;;5054388;28;20047;-77
2022/10/23 04:26:09;;;;;;;3.40;0.63;;;13.80;73.40;;;;;;5054533;28;20374;-77
2022/10/23 04:28:34;;;;;;;1.10;0.60;;;13.80;72.80;;;;;;5054651;28;20162;-77
2022/10/23 04:31:00;;;;;;;2.67;0.60;;;13.90;72.80;;;;;;5054634;28;20028;-77
2022/10/23 04:33:26;;;;;;;2.45;0.60;;;13.90;71.90;;;;;;5054416;28;20047;-76
2022/10/23 04:35:51;;;;;;;2.63;0.30;;;14.00;71.50;;;;;;5054351;28;20498;-77
2022/10/23 04:38:17;;;;;;;2.53;0.35;;;14.00;70.90;;;;;;5054172;28;20024;-77
2022/10/23 04:40:42;;;;;;;0.82;0.30;;;14.00;71.10;;;;;;5054493;28;20021;-77
2022/10/23 04:43:08;;;;;;;4.00;0.40;;;14.00;71.20;;;;;;5055137;28;20111;-77
2022/10/23 04:45:34;;;;;;;0.75;0.30;;;14.00;71.20;;;;;;5058007;28;20055;-77
2022/10/23 04:48:00;;;;;;;0.57;0.50;;;14.00;71.40;;;;;;5057946;28;20111;-77
2022/10/23 04:50:25;;;;;;;5.25;0.28;;;14.00;71.30;;;;;;5057775;28;20370;-77
2022/10/23 04:52:56;;;;;;;1.65;0.38;;;14.00;71.30;;;;;;5057614;28;20060;-77
2022/10/23 04:55:24;;;;;;;0.63;0.40;;;13.90;71.60;;;;;;5057819;28;20079;-77
2022/10/23 04:57:50;;;;;;;4.05;0.30;;;13.90;72.10;;;;;;5075597;28;20126;-77
2022/10/23 05:00:16;;;;;;;2.38;0.55;;;13.90;72.00;;;;;;5057757;28;20104;-77
2022/10/23 05:02:42;;;;;;;1.65;0.32;;;13.90;72.20;;;;;;5057529;28;20024;-77
2022/10/23 05:05:08;;;;;;;2.92;0.38;;;13.80;72.00;;;;;;5057609;28;20498;-76
2022/10/23 05:07:35;;;;;;;1.27;0.32;;;13.80;72.20;;;;;;5057258;28;20027;-77
2022/10/23 05:10:02;;;;;;;0.63;0.40;;;13.80;72.30;;;;;;5057598;28;20028;-76
2022/10/23 05:12:28;;;;;;;1.17;0.55;;;13.70;72.30;;;;;;5057316;28;20507;-77
2022/10/23 05:14:53;;;;;;;0.85;0.47;;;13.80;72.50;;;;;;5057323;28;20028;-77
2022/10/23 05:17:24;;;;;;;2.42;0.47;;;13.70;72.50;;;;;;5057390;28;20039;-77
2022/10/23 05:19:54;;;;;;;2.90;0.30;;;13.70;72.50;;;;;;5057206;28;20020;-76
2022/10/23 05:22:24;;;;;;;3.13;0.30;;;13.70;72.30;;;;;;5057352;28;20373;-76
2022/10/23 05:24:50;;;;;;;0.63;0.40;;;13.70;72.70;;;;;;5057419;28;20021;-76
2022/10/23 05:27:15;;;;;;;2.50;0.30;;;13.60;72.90;;;;;;5057169;28;20028;-76
2022/10/23 05:29:41;;;;;;;0.70;0.40;;;13.60;73.00;;;;;;5057053;28;20028;-76
2022/10/23 05:32:09;;;;;;;2.47;0.50;;;13.50;73.40;;;;;;5057039;28;20035;-75
2022/10/23 05:34:37;;;;;;;3.42;1.05;;;13.50;73.60;;;;;;5056883;28;20097;-75
2022/10/23 05:37:04;;;;;;;2.45;0.77;;;13.50;73.80;;;;;;5056959;28;20059;-75
2022/10/23 05:39:31;;;;;;;1.35;0.43;;;13.40;73.80;;;;;;5057039;28;20114;-75
2022/10/23 05:41:57;;;;;;;0.65;0.38;;;13.40;74.00;;;;;;5056843;28;20052;-75
2022/10/23 05:44:22;;;;;;;0.65;0.40;;;13.40;73.70;;;;;;5062139;28;20047;-75
2022/10/23 05:46:48;;;;;;;2.60;0.70;;;13.40;74.10;;;;;;5056559;28;20389;-75
2022/10/23 05:49:14;;;;;;;0.20;0.20;;;13.40;74.20;;;;;;5056976;28;20032;-75
2022/10/23 05:51:39;;;;;;;1.88;0.38;;;13.30;74.40;;;;;;5056839;28;20086;-75
2022/10/23 05:54:09;;;;;;;0.77;0.50;;;13.20;74.40;;;;;;5056173;28;20542;-75
2022/10/23 05:56:36;;;;;;;2.25;0.55;;;13.30;74.70;;;;;;5055981;28;20037;-76
2022/10/23 05:59:02;;;;;;;0.90;0.60;;;13.20;74.50;;;;;;5056523;28;20033;-76
2022/10/23 06:01:28;;;;;;;1.67;0.60;;;13.20;74.30;;;;;;5056458;28;20020;-75
2022/10/23 06:03:54;;;;;;;7.40;0.70;;;13.20;74.10;;;;;;5056617;28;20059;-75
2022/10/23 06:06:19;;;;;;;1.25;0.73;;;13.20;74.40;;;;;;5056604;28;20028;-75
2022/10/23 06:08:45;;;;;;;8.45;0.70;;;13.10;75.10;;;;;;5056384;28;20123;-78
2022/10/23 06:11:13;;;;;;;2.70;0.63;;;13.00;75.50;;;;;;5056076;28;20033;-74
2022/10/23 06:13:41;;;;;;;0.80;0.40;;;12.90;75.90;;;;;;5070858;28;20048;-77
2022/10/23 06:16:25;;;;;;;0.60;0.50;;;12.90;75.40;;;;;;5072701;28;20067;-74
2022/10/23 06:18:51;;;;;;;4.03;0.60;;;13.00;75.30;;;;;;5084966;28;20067;-76
2022/10/23 06:21:17;;;;;;;1.05;0.30;;;13.00;75.10;;;;;;5089778;28;20458;-76
2022/10/23 06:23:43;;;;;;;2.47;0.40;;;13.10;75.20;;;;;;5089491;28;20029;-76
2022/10/23 06:26:12;;;;;;;0.35;0.32;;;13.10;74.70;;;;;;5072643;28;20120;-77
2022/10/23 06:28:41;;;;;;;2.20;0.50;;;13.20;74.40;;;;;;5089437;28;20077;-76
2022/10/23 06:31:08;;;;;;;0.82;0.40;;;13.20;74.10;;;;;;5089674;28;20073;-77
2022/10/23 06:33:34;;;;;;;1.50;0.50;;;13.20;73.80;;;;;;5089577;28;20081;-77
2022/10/23 06:36:01;;;;;;;1.25;0.55;;;13.20;73.80;;;;;;5089176;28;20044;-77
2022/10/23 06:38:26;;;;;;;3.88;0.57;;;13.20;73.80;;;;;;5089381;28;20469;-77
2022/10/23 06:40:55;;;;;;;6.88;3.92;;;13.30;73.80;;;;;;5089283;28;20039;-76
2022/10/23 06:43:21;;;;;;;1.60;1.50;;;13.30;73.60;;;;;;5089206;28;20144;-77
2022/10/23 06:45:47;;;;;;;1.58;0.90;;;13.30;73.40;;;;;;5089321;28;20441;-77
2022/10/23 06:48:13;;;;;;;1.70;1.20;;;13.40;73.30;;;;;;5089097;28;20123;-77
2022/10/23 06:50:38;;;;;;;3.83;1.90;;;13.40;73.20;;;;;;5072195;28;20462;-77
2022/10/23 06:53:05;;;;;;;4.88;1.98;;;13.50;72.80;;;;;;5089093;28;20027;-77
2022/10/23 06:55:31;;;;;;;6.00;2.05;;;13.50;72.70;;;;;;5088849;28;20575;-77
2022/10/23 06:57:57;;;;;;;4.90;1.90;;;13.50;72.80;;;;;;5088900;28;20033;-77
2022/10/23 07:00:24;;;;;;;3.80;1.88;;;13.60;72.40;;;;;;5089150;28;20023;-77
2022/10/23 07:02:50;;;;;;;2.40;1.92;;;13.70;72.20;;;;;;5089070;28;20115;-77
2022/10/23 07:05:17;;;;;;;6.78;2.63;;;13.70;72.30;;;;;;5089062;28;20067;-77
2022/10/23 07:07:42;;;;;;;2.45;1.50;;;13.80;72.30;;;;;;5088549;28;20048;-77
2022/10/23 07:10:08;;;;;;;5.15;2.20;;;13.80;71.70;;;;;;5088924;28;20455;-77
2022/10/23 07:12:34;;;;;;;3.53;1.60;;;13.90;71.70;;;;;;5088588;28;20041;-77
2022/10/23 07:14:59;;;;;;;5.03;1.27;;;14.00;70.90;;;;;;5088925;28;20036;-77
2022/10/23 07:17:25;;;;;;;2.53;1.38;;;14.10;70.80;;;;;;5088775;28;20036;-76
2022/10/23 07:19:51;;;;;;;6.47;3.53;;;14.20;70.80;;;;;;5088694;28;20052;-77
2022/10/23 07:22:17;;;;;;;3.60;2.28;;;14.40;71.00;;;;;;5088741;28;20033;-77
2022/10/23 07:24:42;;;;;;;2.22;1.35;;;14.50;69.90;;;;;;5088523;28;20024;-77
2022/10/23 07:27:08;;;;;;;2.60;1.40;;;14.60;69.30;;;;;;5088554;28;20074;-78
2022/10/23 07:29:33;;;;;;;3.13;0.88;;;14.60;69.40;;;;;;5088251;28;20067;-77
2022/10/23 07:31:59;;;;;;;1.75;1.02;;;14.70;69.20;;;;;;5088681;28;20380;-78
2022/10/23 07:34:26;;;;;;;3.75;1.25;;;14.70;69.50;;;;;;5088546;28;20481;-77
2022/10/23 07:36:53;;;;;;;2.50;1.20;;;14.60;69.60;;;;;;5088388;28;20040;-77
2022/10/23 07:39:21;;;;;;;2.00;1.17;;;14.70;69.20;;;;;;5088406;28;20061;-77
2022/10/23 07:41:48;;;;;;;3.35;1.27;;;14.80;68.80;;;;;;5088622;28;20025;-76
2022/10/23 07:44:14;;;;;;;2.50;0.55;;;15.00;68.00;;;;;;5088540;28;20107;-76
2022/10/23 07:46:40;;;;;;;4.28;0.95;;;15.10;67.00;;;;;;5088355;28;20526;-77
2022/10/23 07:49:05;;;;;;;3.50;0.75;;;15.10;67.20;;;;;;5088523;28;20029;-76
2022/10/23 07:51:31;;;;;;;3.25;0.77;;;15.30;66.20;;;;;;5088381;28;20152;-77
2022/10/23 07:53:56;;;;;;;1.80;0.80;;;15.50;65.90;;;;;;5088284;28;20066;-76
2022/10/23 07:56:30;;;;;;;1.27;0.82;;;15.60;65.40;;;;;;5088410;28;20479;-75
2022/10/23 07:58:56;;;;;;;4.22;1.05;;;15.90;65.60;;;;;;5088474;28;20025;-76
2022/10/23 08:01:32;;;;;;;6.85;1.92;;;16.00;64.80;;;;;;5088158;28;20032;-76
2022/10/23 08:03:58;;;;;;;3.40;1.50;;;16.20;65.40;;;;;;5088367;28;20028;-76
2022/10/23 08:06:24;;;;;;;2.03;1.10;;;16.30;65.00;;;;;;5088065;28;20456;-76
2022/10/23 08:08:51;;;;;;;2.22;1.30;;;16.30;64.80;;;;;;5088118;28;20048;-75
2022/10/23 08:11:23;;;;;;;4.57;1.42;;;16.30;64.70;;;;;;5088331;28;20044;-76
2022/10/23 08:13:50;;;;;;;1.88;0.88;;;16.30;64.60;;;;;;5088054;28;20087;-76
2022/10/23 08:16:16;;;;;;;4.50;1.15;;;16.50;64.90;;;;;;5071002;28;20094;-76
2022/10/23 08:18:44;;;;;;;1.80;0.80;;;16.60;63.90;;;;;;5089606;28;20032;-77
2022/10/23 08:21:10;;;;;;;2.50;1.27;;;16.70;64.10;;;;;;5091840;28;20036;-75
2022/10/23 08:23:35;;;;;;;1.75;0.70;;;16.80;64.00;;;;;;5092043;28;20075;-76
2022/10/23 08:26:05;;;;;;;1.17;0.38;;;17.00;62.30;;;;;;5091952;28;20488;-76
2022/10/23 08:28:31;;;;;;;2.00;0.80;;;17.10;60.30;;;;;;5091796;28;20021;-77
2022/10/23 08:30:57;;;;;;;5.03;1.10;;;17.30;60.00;;;;;;5091769;28;20078;-76
2022/10/23 08:33:24;;;;;;;2.72;1.10;;;17.60;60.20;;;;;;5091811;28;20103;-78
2022/10/23 08:35:50;;;;;;;1.10;0.80;;;17.70;60.40;;;;;;5075849;28;20036;-79
2022/10/23 08:38:16;;;;;;;5.45;0.90;;;17.80;60.50;;;;;;5091588;28;20024;-78
2022/10/23 08:40:46;;;;;;;1.73;0.80;;;17.80;59.90;;;;;;5091630;28;20024;-78
2022/10/23 08:43:24;;;;;;;5.28;2.80;;;17.90;60.10;;;;;;5091639;28;20044;-76
2022/10/23 08:45:54;;;;;;;4.03;1.00;;;18.10;59.80;;;;;;5091584;28;20027;-78
2022/10/23 08:48:40;;;;;;;1.60;0.90;;;18.30;58.90;;;;;;5091448;28;20020;-76
2022/10/23 08:51:22;;;;;;;1.30;0.73;;;18.60;58.50;;;;;;5091386;28;20025;-77
2022/10/23 08:54:09;;;;;;;1.60;0.90;;;18.80;57.90;;;;;;5091370;28;20032;-77
2022/10/23 08:56:43;;;;;;;2.33;0.60;;;19.10;56.10;;;;;;5074442;28;20039;-77
2022/10/23 08:59:31;;;;;;;7.20;1.40;;;19.40;55.30;;;;;;5091550;28;20020;-77
2022/10/23 09:02:03;;;;;;;3.08;1.00;;;19.60;54.00;;;;;;5091387;28;20087;-78
2022/10/23 09:04:29;;;;;;;1.85;0.80;;;19.70;53.40;;;;;;5091182;28;20027;-77
2022/10/23 09:07:36;;;;;;;2.80;0.70;;;19.90;53.40;;;;;;5090908;28;20020;-77
2022/10/23 09:10:25;;;;;;;1.58;0.80;;;20.30;52.80;;;;;;5073501;28;20086;-77
2022/10/23 09:12:51;;;;;;;1.17;0.60;;;20.60;52.40;;;;;;5074131;28;20044;-77
2022/10/23 09:15:43;;;;;;;1.17;0.60;;;21.00;49.10;;;;;;5090842;28;20032;-77
2022/10/23 09:18:12;;;;;;;1.33;0.65;;;21.30;48.30;;;;;;5091021;28;20385;-77
2022/10/23 09:20:40;;;;;;;1.88;0.75;;;21.70;44.50;;;;;;5090771;28;20406;-77
2022/10/23 09:23:16;;;;;;;2.03;1.25;;;21.90;44.10;;;;;;5075134;28;20393;-76
2022/10/23 09:25:43;;;;;;;1.90;1.10;;;22.20;42.50;;;;;;5090679;28;20055;-77
2022/10/23 09:28:19;;;;;;;2.28;1.25;;;22.00;43.40;;;;;;5090825;28;20055;-77
2022/10/23 09:30:46;;;;;;;2.55;1.00;;;22.20;41.90;;;;;;5090530;28;20021;-77
2022/10/23 09:33:18;;;;;;;1.25;0.73;;;22.40;41.50;;;;;;5090634;28;20443;-77
2022/10/23 09:36:05;;;;;;;2.55;0.77;;;22.80;41.20;;;;;;5073380;28;20029;-77
2022/10/23 09:38:36;;;;;;;0.60;0.60;;;23.00;40.20;;;;;;5090422;28;20025;-77
2022/10/23 09:41:20;;;;;;;0.70;0.50;;;23.10;39.10;;;;;;5090551;28;20074;-76
2022/10/23 09:43:58;;;;;;;1.50;1.20;;;23.30;39.10;;;;;;5073638;28;20032;-78
2022/10/23 09:46:23;;;;;;;0.70;0.50;;;23.40;38.80;;;;;;5090216;28;20043;-78
2022/10/23 09:48:56;;;;;;;1.60;0.40;;;23.50;37.50;;;;;;5090163;28;20016;-77
2022/10/23 09:51:22;;;;;;;0.73;0.20;;;23.40;36.20;;;;;;5090293;28;20036;-78
2022/10/23 09:53:48;;;;;;;0.32;0.30;;;23.20;36.80;;;;;;5090008;28;20025;-77
2022/10/23 09:56:26;;;;;;;1.02;0.20;;;23.10;37.60;;;;;;5073303;28;20124;-77
2022/10/23 09:59:18;;;;;;;0.55;0.20;;;23.10;37.90;;;;;;5089945;28;20028;-78
2022/10/23 10:02:12;;;;;;;1.15;0.20;;;23.00;36.60;;;;;;5090098;28;20085;-78
2022/10/23 10:04:39;;;;;;;0.80;0.38;;;22.80;36.50;;;;;;5042462;28;20033;-78
2022/10/23 10:07:26;;;;;;;0.20;0.20;;;22.90;37.30;;;;;;5089930;28;20024;-77
2022/10/23 10:09:53;;;;;;;0.57;0.20;;;22.90;36.70;;;;;;5090065;28;20075;-77
2022/10/23 10:12:38;;;;;;;0.50;0.20;;;22.80;36.40;;;;;;5089865;28;20501;-77
2022/10/23 10:15:19;;;;;;;3.00;0.30;;;22.80;36.60;;;;;;5072674;28;20028;-77
2022/10/23 10:18:20;;;;;;;4.10;0.30;;;22.60;36.30;;;;;;5072545;28;20074;-77
2022/10/23 10:20:49;;;;;;;0.73;0.22;;;22.50;35.90;;;;;;5089735;28;20020;-77
2022/10/23 10:23:49;;;;;;;0.52;0.28;;;22.50;36.80;;;;;;5072916;28;20031;-77
2022/10/23 10:26:33;;;;;;;0.40;0.20;;;22.50;36.40;;;;;;5089436;28;20388;-77
2022/10/23 10:29:13;;;;;;;2.35;0.50;;;22.70;36.80;;;;;;5089625;28;20024;-77
2022/10/23 10:31:47;;;;;;;2.03;0.70;;;22.80;37.20;;;;;;5072469;28;20477;-77
2022/10/23 10:34:22;;;;;;;0.63;0.50;;;23.00;37.70;;;;;;5089419;28;20366;-77
2022/10/23 10:36:54;;;;;;;0.60;0.57;;;23.20;37.60;;;;;;5072631;28;20131;-77
2022/10/23 10:39:42;;;;;;;0.98;0.40;;;23.40;36.80;;;;;;5089346;28;20029;-77
2022/10/23 10:42:41;;;;;;;0.57;0.30;;;23.40;36.10;;;;;;5071920;28;20017;-77
2022/10/23 10:45:18;;;;;;;2.53;0.20;;;23.50;36.20;;;;;;5072531;28;20025;-78
2022/10/23 10:48:06;;;;;;;3.65;0.40;;;23.50;36.60;;;;;;5089481;28;20047;-77
2022/10/23 10:50:52;;;;;;;1.02;0.20;;;23.30;36.10;;;;;;5072285;28;20021;-77
2022/10/23 10:53:41;;;;;;;0.90;0.43;;;23.10;36.80;;;;;;5088980;28;20035;-78
2022/10/23 10:56:11;;;;;;;1.02;0.40;;;23.10;37.40;;;;;;5088873;28;20559;-78
2022/10/23 10:58:40;;;;;;;1.45;0.50;;;23.10;37.00;;;;;;5089002;28;20113;-77
2022/10/23 11:01:29;;;;;;;1.77;0.38;;;23.10;36.70;;;;;;5088825;28;20032;-77
2022/10/23 11:04:05;;;;;;;2.05;0.32;;;23.30;36.70;;;;;;5072319;28;20097;-77
2022/10/23 11:06:35;;;;;;;3.72;0.47;;;23.60;36.20;;;;;;5088902;28;20025;-77
2022/10/23 11:09:09;;;;;;;0.52;0.15;;;23.80;35.20;;;;;;5088858;28;20016;-77
2022/10/23 11:11:39;;;;;;;1.63;0.38;;;23.90;36.50;;;;;;5088534;28;20362;-77
2022/10/23 11:14:13;;;;;;;1.48;0.70;;;23.90;34.50;;;;;;5055347;28;20036;-77
2022/10/23 11:16:41;;;;;;;4.53;0.40;;;23.90;34.40;;;;;;5071929;28;20035;-77
2022/10/23 11:19:13;;;;;;;1.30;0.30;;;23.90;34.70;;;;;;5055304;28;20051;-77
2022/10/23 11:22:02;;;;;;;2.90;0.50;;;24.00;35.10;;;;;;5055208;28;20036;-77
2022/10/23 11:25:03;;;;;;;0.77;0.40;;;24.10;35.50;;;;;;5055020;28;20024;-77
2022/10/23 11:27:54;;;;;;;1.58;0.60;;;24.20;35.00;;;;;;5055165;28;20481;-77
2022/10/23 11:30:29;;;;;;;2.08;0.60;;;24.60;34.80;;;;;;5055194;28;20047;-78
2022/10/23 11:32:57;;;;;;;;;;;25.00;33.90;;;;;;5055692;28;20073;-77
2022/10/23 11:35:56;;;;;;;2.97;0.52;;;25.10;33.20;;;;;;5054989;28;20029;-78
2022/10/23 11:38:27;;;;;;;2.80;0.35;;;25.10;33.70;;;;;;5054383;28;20036;-78
2022/10/23 11:40:57;;;;;;;5.57;0.57;;;25.00;33.70;;;;;;5054728;28;20020;-77
2022/10/23 11:43:27;;;;;;;2.15;0.68;;;24.90;32.80;;;;;;5055143;28;20025;-77
2022/10/23 11:45:52;;;;;;;1.92;0.60;;;24.90;32.30;;;;;;5071613;28;20021;-76
2022/10/23 11:48:42;;;;;;;2.50;0.55;;;24.90;33.00;;;;;;5054841;28;20035;-77
2022/10/23 11:51:31;;;;;;;3.80;0.68;;;25.20;33.50;;;;;;5054936;28;20485;-77
2022/10/23 11:54:15;;;;;;;2.03;0.57;;;25.50;32.30;;;;;;5056726;28;20057;-77
2022/10/23 11:57:03;;;;;;;1.67;0.50;;;25.70;29.80;;;;;;5075480;28;20032;-78
2022/10/23 11:59:31;;;;;;;0.65;0.40;;;26.00;30.40;;;;;;5058629;28;20500;-77
2022/10/23 12:02:02;;;;;;;2.72;0.50;;;26.20;30.00;;;;;;5058503;28;20481;-77
2022/10/23 12:04:46;;;;;;;3.10;0.82;;;26.30;28.70;;;;;;5058806;28;20021;-77
2022/10/23 12:07:22;;;;;;;1.52;0.60;;;26.10;30.50;;;;;;5059000;28;20051;-77
2022/10/23 12:10:02;;;;;;;2.03;0.73;;;25.90;29.50;;;;;;5059203;28;20099;-78
2022/10/23 12:12:39;;;;;;;3.53;2.42;;;25.80;30.60;;;;;;5075158;28;20072;-78
2022/10/23 12:15:13;;;;;;;16.35;1.40;;;25.60;31.30;;;;;;5058793;28;20020;-77
2022/10/23 12:17:40;;;;;;;3.08;1.25;;;25.60;30.80;;;;;;5075187;28;20020;-77
2022/10/23 12:20:12;;;;;;;2.30;1.25;;;25.40;33.00;;;;;;5058421;28;20024;-78
2022/10/23 12:22:59;;;;;;;5.30;1.50;;;25.40;32.70;;;;;;5074972;28;20392;-78
2022/10/23 12:25:53;;;;;;;4.07;1.27;;;25.20;33.10;;;;;;5075227;28;20443;-78
2022/10/23 12:29:04;;;;;;;1.02;0.77;;;24.90;33.30;;;;;;5058354;28;20032;-77
2022/10/23 12:32:11;;;;;;;2.75;0.80;;;24.50;33.70;;;;;;4958970;28;20029;-77
2022/10/23 12:34:57;;;;;;;4.45;1.02;;;24.20;34.10;;;;;;5074395;28;20036;-77
2022/10/23 12:37:42;;;;;;;1.63;0.85;;;23.90;35.60;;;;;;5057683;28;20033;-77
2022/10/23 12:40:09;;;;;;;2.25;0.80;;;23.70;36.30;;;;;;5074880;28;20032;-77
2022/10/23 12:42:36;;;;;;;1.35;0.80;;;23.80;35.80;;;;;;5058016;28;20021;-77
2022/10/23 12:45:14;;;;;;;2.60;0.65;;;24.10;35.20;;;;;;5057963;28;20028;-78
2022/10/23 12:47:43;;;;;;;2.15;0.90;;;24.70;34.10;;;;;;5057929;28;20028;-77
2022/10/23 12:50:26;;;;;;;2.15;0.73;;;25.50;33.40;;;;;;5057994;28;20465;-77
2022/10/23 12:53:08;;;;;;;1.25;0.95;;;25.70;32.30;;;;;;5075688;28;20495;-77
2022/10/23 12:55:54;;;;;;;0.52;0.52;;;26.00;31.30;;;;;;5041790;28;20041;-77
2022/10/23 12:58:23;;;;;;;1.25;0.50;;;26.60;29.00;;;;;;5057689;28;20025;-78
2022/10/23 13:00:55;;;;;;;1.52;0.50;;;26.90;28.20;;;;;;5057820;28;20071;-77
2022/10/23 13:03:26;;;;;;;3.30;0.77;;;27.20;27.90;;;;;;5057632;28;20017;-79
2022/10/23 13:05:54;;;;;;;0.82;0.50;;;27.40;27.00;;;;;;5057298;28;20035;-76
2022/10/23 13:08:21;;;;;;;2.15;0.70;;;27.80;26.90;;;;;;5057615;28;20115;-76
2022/10/23 13:10:48;;;;;;;1.55;0.80;;;27.90;27.10;;;;;;5057301;28;20028;-77
2022/10/23 13:13:23;;;;;;;4.85;0.73;;;27.80;27.30;;;;;;5068622;28;20045;-78